Time;durP1;ratioP1;P1;durP2;ratioP2;P2;SDS_P1;SDS_P2;PMS_P1;PMS_P2;Temp;Humidity;BMP_temperature;BMP_pressure;BME280_temperature;BME280_humidity;BME280_pressure;Samples;Min_cycle;Max_cycle;Signal;HPM_P1;HPM_P2
2021/11/13 00:00:09;;;;;;;62.00;42.85;;;;;;;3.89;100.00;101738.80;1675126;85;21161;-82
2021/11/13 00:02:40;;;;;;;65.52;42.50;;;;;;;3.92;100.00;101737.44;1653532;85;21079;-82
2021/11/13 00:05:08;;;;;;;58.13;40.88;;;;;;;3.92;100.00;101742.59;1675223;85;21138;-82
2021/11/13 00:07:35;;;;;;;58.35;40.73;;;;;;;3.93;100.00;101743.00;1674916;85;21129;-82
2021/11/13 00:10:04;;;;;;;57.62;39.90;;;;;;;3.93;100.00;101743.83;1675312;85;21157;-82
2021/11/13 00:12:33;;;;;;;64.20;41.73;;;;;;;3.94;100.00;101747.27;1674937;85;21023;-82
2021/11/13 00:15:02;;;;;;;64.20;42.40;;;;;;;3.94;100.00;101748.09;1674686;85;21019;-82
2021/11/13 00:17:29;;;;;;;61.23;41.42;;;;;;;3.97;100.00;101749.73;1674862;85;21050;-81
2021/11/13 00:19:56;;;;;;;62.85;42.00;;;;;;;4.00;100.00;101747.54;1675165;85;21070;-81
2021/11/13 00:22:23;;;;;;;61.18;39.67;;;;;;;4.01;100.00;101744.91;1674965;85;21490;-82
2021/11/13 00:24:50;;;;;;;65.05;40.73;;;;;;;4.02;100.00;101746.60;1675054;85;21794;-81
2021/11/13 00:27:17;;;;;;;59.83;38.83;;;;;;;4.04;100.00;101741.39;1674951;85;21559;-81
2021/11/13 00:29:45;;;;;;;66.65;43.70;;;;;;;4.08;100.00;101745.58;1674931;85;21528;-82
2021/11/13 00:32:12;;;;;;;66.65;44.18;;;;;;;4.10;100.00;101744.64;1674859;85;21023;-82
2021/11/13 00:34:40;;;;;;;66.72;45.50;;;;;;;4.13;100.00;101746.28;1674866;85;21031;-81
2021/11/13 00:37:07;;;;;;;66.35;45.88;;;;;;;4.15;100.00;101747.08;1674925;85;21131;-82
2021/11/13 00:39:34;;;;;;;71.80;49.85;;;;;;;4.15;100.00;101753.53;1675114;85;21067;-81
2021/11/13 00:42:01;;;;;;;73.90;48.75;;;;;;;4.15;100.00;101755.25;1674964;85;21081;-81
2021/11/13 00:44:27;;;;;;;74.40;48.45;;;;;;;4.15;100.00;101753.53;1674950;85;21062;-81
2021/11/13 00:46:54;;;;;;;69.97;47.15;;;;;;;4.15;100.00;101753.53;1678989;85;20983;-82
2021/11/13 00:49:22;;;;;;;73.90;47.93;;;;;;;4.14;100.00;101750.98;1680282;85;21315;-81
2021/11/13 00:51:49;;;;;;;71.82;46.05;;;;;;;4.13;100.00;101748.02;1680279;84;21061;-82
2021/11/13 00:54:16;;;;;;;70.67;44.75;;;;;;;4.13;100.00;101758.34;1680402;85;21042;-82
2021/11/13 00:56:43;;;;;;;64.45;42.03;;;;;;;4.11;100.00;101759.65;1680369;85;21054;-82
2021/11/13 00:59:11;;;;;;;58.48;39.70;;;;;;;4.10;100.00;101758.82;1680190;85;21053;-82
2021/11/13 01:01:39;;;;;;;64.12;40.67;;;;;;;4.08;100.00;101757.18;1679959;84;21112;-81
2021/11/13 01:04:06;;;;;;;62.65;41.10;;;;;;;4.08;100.00;101763.17;1679980;84;21551;-82
2021/11/13 01:06:35;;;;;;;57.33;39.63;;;;;;;4.09;100.00;101759.70;1679619;84;21034;-81
2021/11/13 01:09:04;;;;;;;63.80;40.15;;;;;;;4.11;100.00;101755.78;1680009;84;21062;-81
2021/11/13 01:11:33;;;;;;;61.35;41.30;;;;;;;4.09;100.00;101757.12;1679903;85;21074;-82
2021/11/13 01:14:01;;;;;;;61.23;39.38;;;;;;;4.08;100.00;101759.30;1679956;84;21117;-81
2021/11/13 01:16:30;;;;;;;58.02;40.58;;;;;;;4.09;100.00;101759.70;1650872;85;21051;-83
2021/11/13 01:18:59;;;;;;;54.45;38.45;;;;;;;4.05;100.00;101754.68;1679866;85;21089;-83
2021/11/13 01:21:29;;;;;;;54.05;37.98;;;;;;;4.03;100.00;101764.19;1679956;85;21435;-81
2021/11/13 01:23:57;;;;;;;57.98;37.85;;;;;;;4.02;100.00;101765.94;1679736;85;21579;-81
2021/11/13 01:26:25;;;;;;;52.23;36.88;;;;;;;4.01;100.00;101769.39;1680394;85;21128;-82
2021/11/13 01:28:52;;;;;;;55.03;38.00;;;;;;;4.00;100.00;101772.86;1679915;85;21078;-81
2021/11/13 01:31:21;;;;;;;54.80;37.05;;;;;;;3.98;100.00;101764.31;1648425;84;21038;-82
2021/11/13 01:33:48;;;;;;;57.45;36.42;;;;;;;3.95;100.00;101768.29;1680020;85;21121;-82
2021/11/13 01:36:18;;;;;;;49.83;35.80;;;;;;;3.93;100.00;101770.89;1680091;84;21007;-82
2021/11/13 01:38:45;;;;;;;49.53;35.98;;;;;;;3.95;100.00;101773.45;1680006;84;21171;-82
2021/11/13 01:41:12;;;;;;;56.68;37.15;;;;;;;3.95;100.00;101769.58;1637966;85;21149;-81
2021/11/13 01:43:41;;;;;;;54.53;36.80;;;;;;;3.96;100.00;101767.41;1680001;84;21640;-82
2021/11/13 01:46:11;;;;;;;53.10;37.17;;;;;;;4.01;100.00;101768.11;1667538;84;21101;-82
2021/11/13 01:48:39;;;;;;;55.88;36.33;;;;;;;4.02;100.00;101765.94;1679975;85;21039;-81
2021/11/13 01:51:26;;;;;;;53.42;36.68;;;;;;;4.01;100.00;101765.95;1682437;85;21600;-81
2021/11/13 01:53:57;;;;;;;51.10;37.10;;;;;;;3.98;100.00;101767.35;1679597;85;21079;-81
2021/11/13 01:56:24;;;;;;;54.88;37.38;;;;;;;3.92;100.00;101761.92;1674537;85;21067;-81
2021/11/13 01:58:57;;;;;;;49.63;35.23;;;;;;;3.90;100.00;101768.42;1674621;85;21616;-82
2021/11/13 02:01:25;;;;;;;53.25;36.77;;;;;;;3.91;100.00;101767.96;1674712;85;21599;-81
2021/11/13 02:03:53;;;;;;;50.70;36.15;;;;;;;3.93;100.00;101765.73;1674552;85;21908;-83
2021/11/13 02:06:22;;;;;;;52.50;35.83;;;;;;;3.95;100.00;101770.87;1630885;85;21082;-83
2021/11/13 02:08:51;;;;;;;48.20;34.63;;;;;;;3.95;100.00;101766.55;1645747;85;21032;-82
2021/11/13 02:11:23;;;;;;;48.23;35.20;;;;;;;3.92;100.00;101767.94;1697103;84;21065;-81
2021/11/13 02:13:56;;;;;;;52.15;35.35;;;;;;;3.88;100.00;101775.80;1666999;85;21148;-81
2021/11/13 02:16:23;;;;;;;;;;;;;;;3.81;100.00;101771.25;1698824;84;21732;-81
2021/11/13 02:18:51;;;;;;;49.45;31.20;;;;;;;3.77;100.00;101773.07;1700194;83;20169;-81
2021/11/13 02:21:18;;;;;;;46.30;32.33;;;;;;;3.77;100.00;101774.36;1739873;82;21112;-82
2021/11/13 02:23:48;;;;;;;46.30;33.65;;;;;;;3.74;100.00;101778.30;1737341;82;21025;-82
2021/11/13 02:26:17;;;;;;;53.25;34.38;;;;;;;3.72;100.00;101781.38;1735504;82;20978;-82
2021/11/13 02:28:45;;;;;;;48.23;33.88;;;;;;;3.70;100.00;101784.44;1736722;81;21815;-83
2021/11/13 02:31:13;;;;;;;48.60;32.75;;;;;;;3.68;100.00;101783.63;1736726;81;21056;-81
2021/11/13 02:33:40;;;;;;;55.85;35.90;;;;;;;3.65;100.00;101790.14;1736536;82;21033;-81
2021/11/13 02:36:10;;;;;;;47.03;32.10;;;;;;;3.60;100.00;101788.14;1711188;82;21053;-82
2021/11/13 02:38:40;;;;;;;45.65;33.92;;;;;;;3.48;100.00;101787.58;1729017;82;21056;-82
2021/11/13 02:41:10;;;;;;;40.23;30.52;;;;;;;3.34;100.00;101794.82;1703776;83;21200;-81
2021/11/13 02:43:40;;;;;;;41.33;30.05;;;;;;;3.14;100.00;101805.63;1724504;83;21044;-83
2021/11/13 02:46:15;;;;;;;51.73;32.15;;;;;;;2.95;100.00;101808.67;1724548;83;21503;-82
2021/11/13 02:48:44;;;;;;;50.65;32.28;;;;;;;2.83;100.00;101814.95;1703157;83;21517;-82
2021/11/13 02:51:12;;;;;;;45.75;30.48;;;;;;;2.77;100.00;101819.39;1732035;82;21105;-82
2021/11/13 02:53:45;;;;;;;54.03;32.42;;;;;;;2.72;100.00;101823.80;1733142;82;22355;-82
2021/11/13 02:56:12;;;;;;;46.50;33.18;;;;;;;2.67;100.00;101820.88;1724205;82;21056;-81
2021/11/13 02:58:40;;;;;;;52.95;33.67;;;;;;;2.67;100.00;101820.05;1721275;83;22228;-81
2021/11/13 03:01:18;;;;;;;49.63;31.15;;;;;;;2.60;100.00;101818.50;1714652;82;21541;-82
2021/11/13 03:03:53;;;;;;;45.10;31.50;;;;;;;2.60;100.00;101818.50;1716223;82;21027;-81
2021/11/13 03:06:24;;;;;;;44.75;31.90;;;;;;;2.60;100.00;101815.47;1694263;83;21081;-84
2021/11/13 03:08:54;;;;;;;43.80;31.45;;;;;;;2.59;100.00;101820.20;1714612;82;21032;-82
2021/11/13 03:11:24;;;;;;;50.30;33.25;;;;;;;2.57;100.00;101826.27;1717425;82;21643;-81
2021/11/13 03:13:53;;;;;;;47.60;30.43;;;;;;;2.57;100.00;101824.98;1717726;81;21133;-82
2021/11/13 03:16:21;;;;;;;45.40;31.65;;;;;;;2.53;100.00;101826.32;1702937;83;21575;-81
2021/11/13 03:18:49;;;;;;;45.85;33.02;;;;;;;2.53;100.00;101831.47;1694648;84;21112;-81
2021/11/13 03:21:18;;;;;;;44.75;33.35;;;;;;;2.51;100.00;101831.96;1692952;84;21078;-82
2021/11/13 03:23:47;;;;;;;50.90;34.18;;;;;;;2.48;100.00;101829.90;1692120;83;21049;-83
2021/11/13 03:26:23;;;;;;;47.90;33.05;;;;;;;2.42;100.00;101830.88;1683334;84;21016;-82
2021/11/13 03:29:11;;;;;;;45.10;32.10;;;;;;;2.35;100.00;101828.86;1738389;81;21025;-82
2021/11/13 03:31:42;;;;;;;43.75;30.48;;;;;;;2.32;100.00;101834.50;1740196;80;21155;-82
2021/11/13 03:34:12;;;;;;;53.75;32.93;;;;;;;2.30;100.00;101834.97;1718455;80;21021;-81
2021/11/13 03:36:38;;;;;;;47.83;32.15;;;;;;;2.25;100.00;101835.52;1744959;80;21579;-80
2021/11/13 03:39:07;;;;;;;46.53;31.30;;;;;;;2.22;100.00;101842.85;1743149;82;21594;-81
2021/11/13 03:41:34;;;;;;;50.75;31.90;;;;;;;2.19;100.00;101842.91;1742417;82;21153;-81
2021/11/13 03:44:02;;;;;;;47.78;31.02;;;;;;;2.15;100.00;101843.41;1742587;81;21125;-81
2021/11/13 03:46:31;;;;;;;48.65;32.48;;;;;;;2.12;100.00;101847.77;1742572;82;21038;-81
2021/11/13 03:49:00;;;;;;;42.55;29.72;;;;;;;2.07;100.00;101844.00;1742268;82;21053;-81
2021/11/13 03:51:28;;;;;;;45.43;30.02;;;;;;;2.05;100.00;101849.59;1715308;82;21536;-81
2021/11/13 03:53:55;;;;;;;46.05;30.23;;;;;;;2.04;100.00;101855.64;1739407;81;21567;-81
2021/11/13 03:56:22;;;;;;;45.75;29.45;;;;;;;2.04;100.00;101860.78;1710437;82;21618;-82
2021/11/13 03:58:51;;;;;;;46.55;30.92;;;;;;;2.03;100.00;101853.49;1739190;81;21081;-81
2021/11/13 04:01:18;;;;;;;46.25;29.98;;;;;;;2.06;100.00;101851.30;1731855;82;21018;-81
2021/11/13 04:03:46;;;;;;;43.73;30.37;;;;;;;2.10;100.00;101863.64;1731024;81;21101;-82
2021/11/13 04:06:13;;;;;;;44.10;28.17;;;;;;;2.14;100.00;101862.72;1729382;83;21085;-82
2021/11/13 04:08:42;;;;;;;46.88;29.05;;;;;;;2.17;100.00;101867.36;1729565;81;21074;-83
2021/11/13 04:11:11;;;;;;;40.67;28.42;;;;;;;2.17;100.00;101866.08;1729151;82;21042;-83
2021/11/13 04:13:38;;;;;;;46.65;28.30;;;;;;;2.19;100.00;101863.05;1729361;83;21033;-82
2021/11/13 04:16:05;;;;;;;50.63;28.62;;;;;;;2.23;100.00;101863.83;1708714;82;21117;-83
2021/11/13 04:18:33;;;;;;;73.67;31.27;;;;;;;2.25;100.00;101866.36;1729426;81;21029;-82
2021/11/13 04:21:03;;;;;;;47.33;29.80;;;;;;;2.27;100.00;101869.30;1728769;82;21129;-82
2021/11/13 04:23:43;;;;;;;;;;;;;;;;;;;;;
2021/11/13 04:26:00;;;;;;;45.30;28.77;;;;;;;2.30;100.00;101883.81;1729559;82;21677;-80
2021/11/13 04:28:27;;;;;;;41.48;27.87;;;;;;;2.31;100.00;101891.52;1729574;82;21071;-80
2021/11/13 04:30:54;;;;;;;47.70;28.25;;;;;;;2.29;100.00;101889.41;1729361;82;21001;-81
2021/11/13 04:33:22;;;;;;;45.33;27.80;;;;;;;2.26;100.00;101892.47;1715719;82;21114;-81
2021/11/13 04:38:38;;;;;;;51.28;27.77;;;;;;;2.25;100.00;101898.48;1684071;84;21073;-81
2021/11/13 04:41:07;;;;;;;102.50;31.12;;;;;;;2.37;100.00;101902.08;1683347;83;21234;-81
2021/11/13 04:43:36;;;;;;;76.17;29.55;;;;;;;2.41;100.00;101896.44;1667378;83;21042;-81
2021/11/13 04:46:03;;;;;;;78.52;27.85;;;;;;;2.43;100.00;101889.55;1699159;82;21141;-82
2021/11/13 04:48:30;;;;;;;34.58;25.15;;;;;;;2.47;100.00;101891.20;1680748;83;21094;-82
2021/11/13 04:50:57;;;;;;;37.53;25.82;;;;;;;2.50;100.00;101898.41;1691106;83;21083;-82
2021/11/13 04:53:25;;;;;;;32.10;24.27;;;;;;;2.35;100.00;101900.01;1640619;85;21089;-81
2021/11/13 04:55:53;;;;;;;38.60;23.98;;;;;;;2.35;100.00;101900.01;1668883;84;21033;-82
2021/11/13 04:58:21;;;;;;;36.73;23.70;;;;;;;2.17;100.00;101897.34;1721512;82;21117;-82
2021/11/13 05:00:48;;;;;;;30.08;22.60;;;;;;;2.04;100.00;101909.59;1728984;82;21030;-81
2021/11/13 05:03:16;;;;;;;29.12;21.20;;;;;;;1.92;100.00;101912.38;1729399;81;21659;-81
2021/11/13 05:05:43;;;;;;;30.48;21.02;;;;;;;1.72;100.00;101921.30;1729039;81;21113;-78
2021/11/13 05:08:10;;;;;;;33.48;20.35;;;;;;;1.56;100.00;101930.96;1729590;81;21102;-80
2021/11/13 05:10:39;;;;;;;73.92;22.48;;;;;;;1.45;100.00;101937.56;1729337;83;22006;-80
2021/11/13 05:13:07;;;;;;;32.53;22.50;;;;;;;1.33;100.00;101942.86;1728990;83;21058;-84
2021/11/13 05:15:34;;;;;;;31.15;22.02;;;;;;;1.24;100.00;101951.11;1729426;81;21038;-83
2021/11/13 05:18:03;;;;;;;32.08;22.05;;;;;;;1.09;100.00;101951.33;1731698;82;21005;-83
2021/11/13 05:20:30;;;;;;;28.20;21.10;;;;;;;0.93;100.00;101954.11;1729039;81;21081;-81
2021/11/13 05:22:58;;;;;;;34.95;23.05;;;;;;;0.80;100.00;101954.31;1712051;82;21149;-81
2021/11/13 05:25:26;;;;;;;36.48;23.67;;;;;;;0.66;100.00;101957.88;1701866;82;21062;-82
2021/11/13 05:27:53;;;;;;;30.52;23.70;;;;;;;0.48;100.00;101953.82;1686933;84;20979;-79
2021/11/13 05:30:24;;;;;;;31.82;23.55;;;;;;;0.30;100.00;101964.69;1703389;83;21212;-78
2021/11/13 05:32:53;;;;;;;40.60;24.75;;;;;;;0.14;100.00;101961.86;1700097;84;21074;-79
2021/11/13 05:35:21;;;;;;;35.88;23.55;;;;;;;0.07;100.00;101959.81;1696739;83;21107;-78
2021/11/13 05:37:50;;;;;;;41.20;26.23;;;;;;;0.03;100.00;101966.26;1653025;85;21153;-77
2021/11/13 05:40:19;;;;;;;34.10;23.83;;;;;;;0.02;100.00;101971.80;1633095;85;21063;-81
2021/11/13 05:42:46;;;;;;;35.15;24.85;;;;;;;0.03;100.00;101977.78;1630640;85;21031;-80
2021/11/13 05:45:15;;;;;;;35.08;25.62;;;;;;;0.09;100.00;101972.15;1665778;85;21014;-79
2021/11/13 05:47:44;;;;;;;37.55;25.40;;;;;;;0.11;100.00;101973.44;1663800;84;21146;-79
2021/11/13 05:50:14;;;;;;;42.50;27.95;;;;;;;0.10;100.00;101975.58;1657361;85;21491;-80
2021/11/13 05:52:44;;;;;;;42.50;26.12;;;;;;;0.11;100.00;101983.23;1683340;84;21074;-79
2021/11/13 05:55:14;;;;;;;36.38;25.75;;;;;;;0.12;100.00;101990.52;1679278;84;21038;-79
2021/11/13 05:57:42;;;;;;;38.80;26.45;;;;;;;0.17;100.00;101987.88;1661823;84;21582;-79
2021/11/13 06:00:15;;;;;;;40.70;28.23;;;;;;;0.27;100.00;101989.49;1674825;83;21530;-79
2021/11/13 06:02:43;;;;;;;44.93;27.70;;;;;;;0.37;100.00;101991.52;1661149;85;21066;-79
2021/11/13 06:05:11;;;;;;;37.03;28.35;;;;;;;0.53;100.00;101996.06;1705306;82;21011;-79
2021/11/13 06:07:39;;;;;;;48.05;27.77;;;;;;;0.84;100.00;101996.55;1700101;83;21477;-81
2021/11/13 06:10:08;;;;;;;49.75;28.07;;;;;;;1.13;100.00;101999.19;1666453;86;21153;-78
2021/11/13 06:12:35;;;;;;;43.42;28.47;;;;;;;1.47;100.00;101996.16;1676494;83;21950;-83
2021/11/13 06:15:04;;;;;;;43.00;29.18;;;;;;;1.77;100.00;102001.67;1656468;85;21624;-83
2021/11/13 06:17:32;;;;;;;40.12;28.77;;;;;;;2.09;100.00;102005.85;1684887;85;21073;-80
2021/11/13 06:19:59;;;;;;;39.73;30.02;;;;;;;2.38;100.00;102000.64;1699236;84;21098;-79
2021/11/13 06:22:26;;;;;;;43.52;30.80;;;;;;;2.61;100.00;102004.05;1688593;85;21117;-79
2021/11/13 06:24:55;;;;;;;46.18;33.13;;;;;;;2.84;100.00;102007.45;1699366;84;21131;-79
2021/11/13 06:27:22;;;;;;;49.30;31.75;;;;;;;3.08;100.00;102006.54;1688645;83;21469;-80
2021/11/13 06:29:50;;;;;;;43.33;31.37;;;;;;;3.29;100.00;102002.66;1699225;84;21056;-79
2021/11/13 06:32:17;;;;;;;48.30;32.63;;;;;;;3.45;100.00;101996.70;1674188;85;21064;-79
2021/11/13 06:34:44;;;;;;;50.20;32.03;;;;;;;3.57;100.00;102000.72;1680094;84;21066;-79
2021/11/13 06:37:11;;;;;;;47.88;32.53;;;;;;;3.68;100.00;101997.91;1607468;85;21101;-80
2021/11/13 06:39:38;;;;;;;46.30;32.13;;;;;;;3.76;100.00;101994.71;1653734;85;21046;-80
2021/11/13 06:42:06;;;;;;;49.77;31.97;;;;;;;3.87;100.00;102000.88;1684473;83;21652;-80
2021/11/13 06:44:33;;;;;;;47.50;32.63;;;;;;;3.92;100.00;101996.45;1673884;83;21061;-81
2021/11/13 06:47:00;;;;;;;43.50;32.17;;;;;;;4.03;100.00;101995.75;1679342;84;21069;-79
2021/11/13 06:49:27;;;;;;;47.35;32.58;;;;;;;4.11;100.00;102001.98;1677941;83;21078;-80
2021/11/13 06:51:55;;;;;;;41.05;31.57;;;;;;;4.18;100.00;101995.78;1680803;83;21508;-81
2021/11/13 06:54:22;;;;;;;46.50;31.50;;;;;;;4.22;100.00;101999.13;1681919;83;21524;-79
2021/11/13 06:56:49;;;;;;;43.25;30.80;;;;;;;4.29;100.00;101996.78;1648984;85;21003;-80
2021/11/13 06:59:17;;;;;;;45.98;30.68;;;;;;;4.36;100.00;102005.21;1676809;84;20983;-79
2021/11/13 07:01:44;;;;;;;45.35;29.42;;;;;;;4.43;100.00;102004.16;1659065;85;21113;-80
2021/11/13 07:04:11;;;;;;;38.40;27.98;;;;;;;4.50;100.00;102006.13;1657326;85;21089;-79
2021/11/13 07:06:38;;;;;;;39.95;27.55;;;;;;;4.55;100.00;102010.71;1657388;85;21103;-79
2021/11/13 07:09:05;;;;;;;37.85;27.17;;;;;;;4.53;100.00;102012.05;1664442;83;21667;-81
2021/11/13 07:11:32;;;;;;;39.33;28.07;;;;;;;4.51;100.00;102004.80;1662571;84;21672;-80
2021/11/13 07:13:59;;;;;;;49.93;28.80;;;;;;;4.49;100.00;102009.59;1657359;85;21523;-79
2021/11/13 07:16:27;;;;;;;46.42;30.50;;;;;;;4.46;100.00;102010.95;1657086;86;21118;-80
2021/11/13 07:18:54;;;;;;;49.38;27.77;;;;;;;4.41;100.00;102005.50;1657263;86;21037;-84
2021/11/13 07:21:21;;;;;;;42.20;28.52;;;;;;;4.44;100.00;102007.14;1657046;86;21542;-84
2021/11/13 07:23:50;;;;;;;46.02;28.17;;;;;;;4.50;100.00;102002.27;1656971;86;21618;-84
2021/11/13 07:26:17;;;;;;;49.18;29.00;;;;;;;4.57;100.00;101994.75;1626780;86;21121;-83
2021/11/13 07:28:45;;;;;;;41.55;29.40;;;;;;;4.64;100.00;101998.02;1653748;85;21560;-83
2021/11/13 07:31:16;;;;;;;41.90;28.52;;;;;;;4.70;100.00;101997.38;1684393;85;21072;-83
2021/11/13 07:33:46;;;;;;;42.53;28.60;;;;;;;4.79;100.00;101994.14;1656646;85;21023;-83
2021/11/13 07:36:14;;;;;;;43.33;28.50;;;;;;;4.82;100.00;101996.64;1683030;84;21121;-82
2021/11/13 07:38:41;;;;;;;38.60;27.48;;;;;;;4.84;100.00;102000.03;1684828;83;21117;-83
2021/11/13 07:41:10;;;;;;;43.90;26.50;;;;;;;4.84;100.00;102002.16;1684578;83;21367;-83
2021/11/13 07:43:40;;;;;;;40.95;27.17;;;;;;;4.86;100.00;102004.26;1684864;85;21675;-84
2021/11/13 07:46:08;;;;;;;41.83;28.00;;;;;;;4.93;100.00;102011.81;1684588;83;21086;-84
2021/11/13 07:48:35;;;;;;;42.35;27.55;;;;;;;5.01;100.00;102017.14;1677793;84;21570;-84
2021/11/13 07:51:03;;;;;;;38.02;26.17;;;;;;;5.08;100.00;102019.11;1682784;83;21841;-82
2021/11/13 07:53:32;;;;;;;39.63;25.70;;;;;;;5.15;100.00;102020.62;1702203;83;21198;-82
2021/11/13 07:55:59;;;;;;;36.35;24.52;;;;;;;5.21;100.00;102023.01;1707983;82;21017;-82
2021/11/13 07:58:26;;;;;;;41.77;26.57;;;;;;;5.28;100.00;102019.80;1693989;83;21101;-82
2021/11/13 08:00:53;;;;;;;39.18;25.77;;;;;;;5.39;100.00;102027.68;1667894;84;22327;-82
2021/11/13 08:03:20;;;;;;;36.75;24.02;;;;;;;5.50;100.00;102031.62;1693812;84;21145;-84
2021/11/13 08:05:49;;;;;;;35.15;23.20;;;;;;;5.59;100.00;102038.23;1685893;83;21100;-81
2021/11/13 08:08:16;;;;;;;36.23;24.40;;;;;;;5.65;100.00;102038.03;1659423;85;21057;-82
2021/11/13 08:10:46;;;;;;;34.98;22.90;;;;;;;5.71;100.00;102037.45;1669456;83;21073;-82
2021/11/13 08:13:19;;;;;;;39.20;24.50;;;;;;;5.78;100.00;102036.36;1655012;84;21347;-81
2021/11/13 08:15:48;;;;;;;33.58;22.58;;;;;;;5.82;100.00;102044.41;1698963;83;21073;-82
2021/11/13 08:18:18;;;;;;;44.88;31.35;;;;;;;5.83;100.00;102034.47;1671109;84;21740;-82
2021/11/13 08:20:46;;;;;;;32.78;23.45;;;;;;;5.87;100.00;102026.16;1678735;85;21099;-82
2021/11/13 08:23:15;;;;;;;35.50;24.60;;;;;;;5.92;100.00;102030.29;1704568;82;21046;-81
2021/11/13 08:25:45;;;;;;;33.95;22.70;;;;;;;6.01;100.00;102039.50;1703261;84;21061;-82
2021/11/13 08:28:13;;;;;;;36.08;23.75;;;;;;;6.10;100.00;102041.79;1686569;83;21140;-82
2021/11/13 08:30:40;;;;;;;33.40;23.42;;;;;;;6.17;100.00;102033.84;1672973;84;21101;-82
2021/11/13 08:33:09;;;;;;;38.42;24.02;;;;;;;6.24;100.00;102032.28;1675546;82;21022;-82
2021/11/13 08:35:41;;;;;;;35.88;22.85;;;;;;;6.33;100.00;102033.69;1683469;84;21038;-81
2021/11/13 08:38:14;;;;;;;37.90;23.38;;;;;;;6.42;100.00;102024.32;1684906;83;21066;-81
2021/11/13 08:40:42;;;;;;;32.30;21.97;;;;;;;6.50;100.00;102016.73;1716159;81;21140;-82
2021/11/13 08:43:10;;;;;;;35.83;22.98;;;;;;;6.57;100.00;102028.58;1697544;83;21765;-82
2021/11/13 08:45:38;;;;;;;33.18;22.85;;;;;;;6.63;100.00;102027.89;1696408;83;21112;-82
2021/11/13 08:48:06;;;;;;;34.38;23.92;;;;;;;6.69;100.00;102026.00;1699085;84;21090;-83
2021/11/13 08:50:33;;;;;;;34.75;22.55;;;;;;;6.80;100.00;102026.44;1695221;84;21094;-82
2021/11/13 08:53:04;;;;;;;34.95;22.77;;;;;;;6.87;100.00;102029.19;1688596;83;21771;-82
2021/11/13 08:55:35;;;;;;;34.80;23.02;;;;;;;6.89;100.00;102020.92;1681399;84;21055;-82
2021/11/13 08:58:04;;;;;;;36.95;22.50;;;;;;;6.92;100.00;102023.41;1721790;82;21121;-82
2021/11/13 09:00:55;;;;;;;31.33;20.88;;;;;;;6.93;100.00;102018.59;1728200;82;21080;-82
2021/11/13 09:03:35;;;;;;;32.30;21.73;;;;;;;6.96;100.00;102021.55;1723340;81;21076;-82
2021/11/13 09:06:10;;;;;;;37.60;21.48;;;;;;;7.02;100.00;102020.02;1721861;81;21058;-82
2021/11/13 09:08:39;;;;;;;48.63;23.10;;;;;;;7.04;100.00;102016.06;1712394;82;21667;-81
2021/11/13 09:11:12;;;;;;;35.23;22.62;;;;;;;7.08;100.00;102021.54;1713221;82;21117;-82
2021/11/13 09:13:40;;;;;;;36.05;22.62;;;;;;;7.12;100.00;102021.80;1716044;82;21136;-82
2021/11/13 09:16:11;;;;;;;31.62;21.55;;;;;;;7.13;100.00;102018.31;1714308;82;21085;-82
2021/11/13 09:18:40;;;;;;;32.20;21.25;;;;;;;7.18;100.00;102021.56;1721399;82;21648;-82
2021/11/13 09:21:07;;;;;;;33.73;22.90;;;;;;;7.24;100.00;102026.53;1723807;82;22187;-82
2021/11/13 09:23:37;;;;;;;34.98;23.07;;;;;;;7.34;100.00;102024.85;1683012;84;21053;-81
2021/11/13 09:26:06;;;;;;;40.23;22.77;;;;;;;7.40;100.00;102022.05;1707422;82;21492;-82
2021/11/13 09:28:35;;;;;;;38.88;23.47;;;;;;;7.47;100.00;102024.78;1675634;83;21073;-82
2021/11/13 09:31:02;;;;;;;36.58;23.25;;;;;;;7.53;100.00;102022.41;1693882;83;21963;-81
2021/11/13 09:33:33;;;;;;;35.73;22.35;;;;;;;7.57;100.00;102018.31;1674431;84;21123;-81
2021/11/13 09:36:02;;;;;;;32.80;22.73;;;;;;;7.62;100.00;102023.77;1694483;83;21556;-81
2021/11/13 09:38:33;;;;;;;32.65;22.02;;;;;;;7.66;100.00;102027.92;1694367;84;21101;-81
2021/11/13 09:41:03;;;;;;;;;;;;;;;7.69;100.00;102023.91;1697018;84;21549;-81
2021/11/13 09:43:31;;;;;;;34.03;23.12;;;;;;;7.72;100.00;102015.56;1694757;83;21081;-81
2021/11/13 09:46:01;;;;;;;34.18;22.52;;;;;;;7.78;100.00;102021.39;1694316;84;21524;-81
2021/11/13 09:48:30;;;;;;;32.80;22.73;;;;;;;7.80;100.00;102019.15;1692172;83;21041;-81
2021/11/13 09:50:58;;;;;;;32.95;21.87;;;;;;;7.85;100.00;102021.09;1723517;82;21724;-81
2021/11/13 09:53:28;;;;;;;31.30;21.33;;;;;;;7.95;100.00;102018.12;1691425;84;21050;-81
2021/11/13 09:55:57;;;;;;;31.27;20.65;;;;;;;8.01;100.00;102016.56;1670998;84;21205;-81
2021/11/13 09:58:27;;;;;;;30.97;21.68;;;;;;;8.04;100.00;102015.98;1675868;84;21027;-81
2021/11/13 10:00:54;;;;;;;36.08;21.50;;;;;;;8.04;100.00;102013.38;1672307;85;21105;-80
2021/11/13 10:03:23;;;;;;;29.12;20.82;;;;;;;8.07;100.00;102015.47;1673833;85;21101;-80
2021/11/13 10:05:55;;;;;;;25.90;19.00;;;;;;;8.09;100.00;102015.78;1665081;84;21069;-80
2021/11/13 10:08:23;;;;;;;28.45;20.20;;;;;;;8.12;100.00;102012.21;1659908;84;21179;-80
2021/11/13 10:11:05;;;;;;;30.65;19.52;;;;;;;8.18;100.00;102016.70;1672317;85;21052;-82
2021/11/13 10:13:40;;;;;;;27.85;19.35;;;;;;;8.23;100.00;102023.42;1673916;85;21061;-82
2021/11/13 10:16:14;;;;;;;30.97;20.15;;;;;;;8.27;100.00;102023.23;1674224;84;21125;-82
2021/11/13 10:18:48;;;;;;;28.85;19.70;;;;;;;8.31;100.00;102027.40;1647424;85;21026;-81
2021/11/13 10:21:23;;;;;;;28.90;19.30;;;;;;;8.33;100.00;102025.55;1694842;84;22020;-82
2021/11/13 10:23:57;;;;;;;25.57;18.00;;;;;;;8.38;100.00;102029.25;1668984;85;21871;-82
2021/11/13 10:26:36;;;;;;;25.15;17.80;;;;;;;8.38;100.00;102026.66;1667838;85;21048;-82
2021/11/13 10:29:15;;;;;;;27.15;18.42;;;;;;;8.42;100.00;102027.37;1671960;85;21579;-82
2021/11/13 10:31:47;;;;;;;27.70;18.87;;;;;;;8.43;100.00;102030.36;1663099;85;21014;-81
2021/11/13 10:34:26;;;;;;;24.95;17.57;;;;;;;8.45;100.00;102022.88;1666227;84;22099;-82
2021/11/13 10:36:58;;;;;;;27.85;18.23;;;;;;;8.50;100.00;102022.28;1675650;84;21016;-83
2021/11/13 10:39:34;;;;;;;25.48;18.30;;;;;;;8.54;100.00;102017.80;1731466;82;21014;-82
2021/11/13 10:42:06;;;;;;;26.20;16.75;;;;;;;8.54;100.00;102020.39;1727861;81;21086;-82
2021/11/13 10:44:48;;;;;;;24.55;16.32;;;;;;;8.53;100.00;102009.61;1729296;83;21022;-82
2021/11/13 10:47:32;;;;;;;24.18;16.23;;;;;;;8.53;100.00;102013.03;1706076;83;21086;-82
2021/11/13 10:50:25;;;;;;;32.70;17.98;;;;;;;8.55;100.00;102010.39;1725924;81;21264;-83
2021/11/13 10:53:09;;;;;;;43.00;16.65;;;;;;;8.53;100.00;102013.03;1733034;81;21009;-83
2021/11/13 10:56:13;;;;;;;25.40;16.50;;;;;;;8.55;100.00;102005.64;1741161;81;21500;-83
2021/11/13 10:58:54;;;;;;;24.90;16.85;;;;;;;8.57;100.00;102005.12;1740961;81;21119;-83
2021/11/13 11:01:32;;;;;;;;;;;;;;;8.58;100.00;102009.41;1721458;82;21171;-83
2021/11/13 11:04:13;;;;;;;27.90;15.63;;;;;;;8.59;100.00;102005.91;1742923;82;20198;-83
2021/11/13 11:06:42;;;;;;;;;;;;;;;8.59;100.00;101999.41;1745121;82;21017;-82
2021/11/13 11:09:29;;;;;;;23.10;14.58;;;;;;;8.61;100.00;101992.41;1742605;82;20147;-83
2021/11/13 11:12:06;;;;;;;23.55;14.18;;;;;;;8.62;100.00;101999.26;1742465;80;21794;-82
2021/11/13 11:14:38;;;;;;;20.55;13.98;;;;;;;8.60;100.00;101994.14;1740071;81;21158;-83
2021/11/13 11:17:09;;;;;;;21.48;14.58;;;;;;;8.58;100.00;101997.25;1741418;81;21394;-83
2021/11/13 11:19:37;;;;;;;;;;;;;;;8.58;100.00;101995.13;1745178;81;21089;-82
2021/11/13 11:22:11;;;;;;;18.05;12.85;;;;;;;8.57;100.00;101999.94;1742635;82;20393;-83
2021/11/13 11:24:46;;;;;;;19.57;13.25;;;;;;;8.57;100.00;101999.94;1743194;82;21031;-84